Time;durP1;ratioP1;P1;durP2;ratioP2;P2;SDS_P1;SDS_P2;PMS_P1;PMS_P2;Temp;Humidity;BMP_temperature;BMP_pressure;BME280_temperature;BME280_humidity;BME280_pressure;Samples;Min_cycle;Max_cycle;Signal;HPM_P1;HPM_P2
2021/12/27 00:00:45;;;;;;;;;;;2.20;99.90;;;;;;5097993;28;19920;-59
2021/12/27 00:03:12;;;;;;;;;;;2.30;99.90;;;;;;5104281;28;20299;-58
2021/12/27 00:05:39;;;;;;;;;;;2.30;99.90;;;;;;5095685;28;20349;-59
2021/12/27 00:08:05;;;;;;;;;;;2.30;99.90;;;;;;5095907;28;19943;-59
2021/12/27 00:10:32;;;;;;;;;;;2.40;99.90;;;;;;5096063;28;19924;-58
2021/12/27 00:12:59;;;;;;;;;;;2.40;99.90;;;;;;5095824;28;20384;-59
2021/12/27 00:15:26;;;;;;;;;;;2.40;99.90;;;;;;5095306;28;19923;-56
2021/12/27 00:17:53;;;;;;;;;;;2.40;99.90;;;;;;5095759;28;19923;-59
2021/12/27 00:20:20;;;;;;;;;;;2.40;99.90;;;;;;5095609;28;20010;-59
2021/12/27 00:22:47;;;;;;;;;;;2.40;99.90;;;;;;5095567;28;19919;-59
2021/12/27 00:25:15;;;;;;;;;;;2.40;99.90;;;;;;5095159;28;19919;-58
2021/12/27 00:27:42;;;;;;;;;;;2.40;99.90;;;;;;5095579;28;19978;-59
2021/12/27 00:30:09;;;;;;;;;;;2.40;99.90;;;;;;5095374;28;19962;-58
2021/12/27 00:32:37;;;;;;;;;;;2.30;99.90;;;;;;5095365;28;19920;-59
2021/12/27 00:35:04;;;;;;;;;;;2.20;99.90;;;;;;5095386;28;19920;-59
2021/12/27 00:37:31;;;;;;;;;;;2.30;99.90;;;;;;5095443;28;19920;-59
2021/12/27 00:39:58;;;;;;;;;;;2.10;99.90;;;;;;5095367;28;19926;-59
2021/12/27 00:42:25;;;;;;;;;;;2.10;99.90;;;;;;5095463;28;19920;-58
2021/12/27 00:44:52;;;;;;;;;;;2.10;99.90;;;;;;5095004;28;19924;-58
2021/12/27 00:47:18;;;;;;;;;;;2.10;99.90;;;;;;5094976;28;20014;-58
2021/12/27 00:49:45;;;;;;;;;;;2.10;99.90;;;;;;5095198;28;20006;-59
2021/12/27 00:52:12;;;;;;;;;;;2.00;99.90;;;;;;5095160;28;19965;-58
2021/12/27 00:54:39;;;;;;;;;;;2.00;99.90;;;;;;5095519;28;20015;-59
2021/12/27 00:57:06;;;;;;;;;;;2.00;99.90;;;;;;5094628;28;19920;-58
2021/12/27 00:59:32;;;;;;;;;;;2.00;99.90;;;;;;5094781;28;19923;-59
2021/12/27 01:01:59;;;;;;;;;;;2.00;99.90;;;;;;5094904;28;19965;-59
2021/12/27 01:04:26;;;;;;;;;;;2.00;99.90;;;;;;5093727;28;19969;-57
2021/12/27 01:06:53;;;;;;;;;;;2.10;99.90;;;;;;5094590;28;20372;-57
2021/12/27 01:09:34;;;;;;;;;;;2.10;99.90;;;;;;5094791;28;19989;-58
2021/12/27 01:15:06;;;;;;;;;;;2.20;99.90;;;;;;5094677;28;19961;-58
2021/12/27 01:17:34;;;;;;;;;;;2.20;99.90;;;;;;5094513;28;20380;-58
2021/12/27 01:20:03;;;;;;;;;;;2.10;99.90;;;;;;5094532;28;19973;-58
2021/12/27 01:22:30;;;;;;;;;;;2.10;99.90;;;;;;5094542;28;19920;-58
2021/12/27 01:24:58;;;;;;;;;;;2.10;99.90;;;;;;5094495;28;19920;-59
2021/12/27 01:27:25;;;;;;;;;;;2.10;99.90;;;;;;5093859;28;19920;-58
2021/12/27 01:29:52;;;;;;;;;;;2.00;99.90;;;;;;5094424;28;19920;-58
2021/12/27 01:32:20;;;;;;;;;;;2.10;99.90;;;;;;5094337;28;19946;-58
2021/12/27 01:34:47;;;;;;;;;;;2.10;99.90;;;;;;5094428;28;19974;-59
2021/12/27 01:37:17;;;;;;;;;;;2.20;99.90;;;;;;5093902;28;19989;-58
2021/12/27 01:39:44;;;;;;;;;;;2.20;99.90;;;;;;5094244;28;19966;-59
2021/12/27 01:42:11;;;;;;;;;;;2.20;99.90;;;;;;5094171;28;19920;-59
2021/12/27 01:44:39;;;;;;;;;;;2.30;99.90;;;;;;5094163;28;19923;-58
2021/12/27 01:47:08;;;;;;;;;;;2.30;99.90;;;;;;5093686;28;19920;-59
2021/12/27 01:49:35;;;;;;;;;;;2.30;99.90;;;;;;5094070;28;19997;-58
2021/12/27 01:52:02;;;;;;;;;;;2.40;99.90;;;;;;5094225;28;19920;-58
2021/12/27 01:54:28;;;;;;;;;;;2.40;99.90;;;;;;5094032;28;20114;-59
2021/12/27 01:56:55;;;;;;;;;;;2.30;99.90;;;;;;5093520;28;20015;-58
2021/12/27 01:59:22;;;;;;;;;;;2.30;99.90;;;;;;5093851;28;19920;-59
2021/12/27 02:01:49;;;;;;;;;;;2.20;99.90;;;;;;5093662;28;19967;-59
2021/12/27 02:04:16;;;;;;;;;;;2.20;99.90;;;;;;5093907;28;20340;-58
2021/12/27 02:06:43;;;;;;;;;;;2.20;99.90;;;;;;5093129;28;19928;-58
2021/12/27 02:09:10;;;;;;;;;;;2.20;99.90;;;;;;5093754;28;20429;-58
2021/12/27 02:11:37;;;;;;;;;;;2.20;99.90;;;;;;5093551;28;19928;-59
2021/12/27 02:14:04;;;;;;;;;;;2.20;99.90;;;;;;5093433;28;19920;-58
2021/12/27 02:16:32;;;;;;;;;;;2.20;99.90;;;;;;5092761;28;19928;-58
2021/12/27 02:18:58;;;;;;;;;;;2.20;99.90;;;;;;5093546;28;19928;-58
2021/12/27 02:21:25;;;;;;;;;;;2.20;99.90;;;;;;5093447;28;19977;-59
2021/12/27 02:23:54;;;;;;;;;;;2.20;99.90;;;;;;5093271;28;19927;-58
2021/12/27 02:26:21;;;;;;;;;;;2.30;99.90;;;;;;5093037;28;19969;-59
2021/12/27 02:28:48;;;;;;;;;;;2.20;99.90;;;;;;5093117;28;19932;-59
2021/12/27 02:31:16;;;;;;;;;;;2.20;99.90;;;;;;5093272;28;19920;-59
2021/12/27 02:33:43;;;;;;;;;;;2.20;99.90;;;;;;5093497;28;20030;-59
2021/12/27 02:36:11;;;;;;;;;;;2.30;99.90;;;;;;5092521;28;20386;-58
2021/12/27 02:38:39;;;;;;;;;;;2.30;99.90;;;;;;5093112;28;19920;-58
2021/12/27 02:41:06;;;;;;;;;;;2.30;99.90;;;;;;5092924;28;19969;-58
2021/12/27 02:43:35;;;;;;;;;;;2.30;99.90;;;;;;5093016;28;19974;-58
2021/12/27 02:46:04;;;;;;;;;;;2.30;99.90;;;;;;5092493;28;19920;-58
2021/12/27 02:48:34;;;;;;;;;;;2.20;99.90;;;;;;5092870;28;19924;-57
2021/12/27 02:51:00;;;;;;;;;;;2.20;99.90;;;;;;5092865;28;20342;-58
2021/12/27 02:53:30;;;;;;;;;;;2.20;99.90;;;;;;5092902;28;19920;-58
2021/12/27 02:55:58;;;;;;;;;;;2.10;99.90;;;;;;5092390;28;20411;-58
2021/12/27 02:58:25;;;;;;;;;;;2.10;99.90;;;;;;5092867;28;19974;-58
2021/12/27 03:00:55;;;;;;;;;;;2.10;99.90;;;;;;5092631;28;19920;-57
2021/12/27 03:03:22;;;;;;;;;;;2.10;99.90;;;;;;5092976;28;19920;-58
2021/12/27 03:05:49;;;;;;;;;;;2.10;99.90;;;;;;5092144;28;19954;-58
2021/12/27 03:08:17;;;;;;;;;;;2.10;99.90;;;;;;5092286;28;19920;-58
2021/12/27 03:10:46;;;;;;;;;;;2.00;99.90;;;;;;5092459;28;19989;-58
2021/12/27 03:13:17;;;;;;;;;;;2.10;99.90;;;;;;5092575;28;19920;-57
2021/12/27 03:15:44;;;;;;;;;;;2.10;99.90;;;;;;5092101;28;19920;-58
2021/12/27 03:18:11;;;;;;;;;;;2.00;99.90;;;;;;5092460;28;19923;-57
2021/12/27 03:20:39;;;;;;;;;;;2.00;99.90;;;;;;5092448;28;19962;-57
2021/12/27 03:23:05;;;;;;;;;;;2.00;99.90;;;;;;5092015;28;19924;-58
2021/12/27 03:25:33;;;;;;;;;;;2.00;99.90;;;;;;5091941;28;19920;-58
2021/12/27 03:28:01;;;;;;;;;;;2.00;99.90;;;;;;5091633;28;19920;-58
2021/12/27 03:30:28;;;;;;;;;;;1.90;99.90;;;;;;5092253;28;19932;-58
2021/12/27 03:32:55;;;;;;;;;;;2.00;99.90;;;;;;5092237;28;19920;-58
2021/12/27 03:35:27;;;;;;;;;;;1.90;99.90;;;;;;5091645;28;20342;-58
2021/12/27 03:37:55;;;;;;;;;;;1.90;99.90;;;;;;5092139;28;19946;-58
2021/12/27 03:40:22;;;;;;;;;;;1.90;99.90;;;;;;5092117;28;19920;-58
2021/12/27 03:42:52;;;;;;;;;;;1.80;99.90;;;;;;5092090;28;19924;-57
2021/12/27 03:45:19;;;;;;;;;;;1.80;99.90;;;;;;5091723;28;19936;-58
2021/12/27 03:47:47;;;;;;;;;;;1.80;99.90;;;;;;5091915;28;19927;-57
2021/12/27 03:50:14;;;;;;;;;;;1.80;99.90;;;;;;5092215;28;19931;-58
2021/12/27 03:52:41;;;;;;;;;;;1.70;99.90;;;;;;5091919;28;19923;-57
2021/12/27 03:55:08;;;;;;;;;;;1.70;99.90;;;;;;5091834;28;19920;-58
2021/12/27 03:57:38;;;;;;;;;;;1.70;99.90;;;;;;5092007;28;19927;-58
2021/12/27 04:02:48;;;;;;;;;;;1.60;99.90;;;;;;5091988;28;20346;-56
2021/12/27 04:05:16;;;;;;;;;;;1.60;99.90;;;;;;5091523;28;19920;-58
2021/12/27 04:07:44;;;;;;;;;;;1.60;99.90;;;;;;5091759;28;19993;-57
2021/12/27 04:10:11;;;;;;;;;;;1.50;99.90;;;;;;5091896;28;20368;-58
2021/12/27 04:12:38;;;;;;;;;;;1.50;99.90;;;;;;5091835;28;19920;-58
2021/12/27 04:15:07;;;;;;;;;;;1.50;99.90;;;;;;5091592;28;20022;-58
2021/12/27 04:17:35;;;;;;;;;;;1.50;99.90;;;;;;5091627;28;19924;-59
2021/12/27 04:20:02;;;;;;;;;;;1.50;99.90;;;;;;5091841;28;19920;-57
2021/12/27 04:22:33;;;;;;;;;;;1.50;99.90;;;;;;5117787;22;19919;-58
2021/12/27 04:25:38;;;;;;;;;;;1.50;99.90;;;;;;5109287;28;19927;-58
2021/12/27 04:28:05;;;;;;;;;;;1.50;99.90;;;;;;5112430;28;19976;-58
2021/12/27 04:30:32;;;;;;;;;;;1.50;99.90;;;;;;5112139;28;19919;-58
2021/12/27 04:32:59;;;;;;;;;;;1.50;99.90;;;;;;5111958;28;19973;-58
2021/12/27 04:35:28;;;;;;;;;;;1.50;99.90;;;;;;5111420;28;19976;-58
2021/12/27 04:37:55;;;;;;;;;;;1.50;99.90;;;;;;5111878;28;19985;-58
2021/12/27 04:40:22;;;;;;;;;;;1.50;99.90;;;;;;5115826;28;19926;-58
2021/12/27 04:42:51;;;;;;;;;;;1.50;99.90;;;;;;5115733;28;19965;-58
2021/12/27 04:45:18;;;;;;;;;;;1.50;99.90;;;;;;5115171;28;19964;-58
2021/12/27 04:47:45;;;;;;;;;;;1.50;99.90;;;;;;5115653;28;19926;-58
2021/12/27 04:50:12;;;;;;;;;;;1.50;99.90;;;;;;5115577;28;19920;-58
2021/12/27 04:52:39;;;;;;;;;;;1.60;99.90;;;;;;5115437;28;19981;-58
2021/12/27 04:55:06;;;;;;;;;;;1.60;99.90;;;;;;5115201;28;19992;-58
2021/12/27 04:57:33;;;;;;;;;;;1.60;99.90;;;;;;5115326;28;19923;-58
2021/12/27 05:00:00;;;;;;;;;;;1.60;99.90;;;;;;5115471;28;19926;-58
2021/12/27 05:02:27;;;;;;;;;;;1.60;99.90;;;;;;5115265;28;19977;-59
2021/12/27 05:04:54;;;;;;;;;;;1.60;99.90;;;;;;5115208;28;20376;-58
2021/12/27 05:07:20;;;;;;;;;;;1.60;99.90;;;;;;5114987;28;19926;-58
2021/12/27 05:09:47;;;;;;;;;;;1.60;99.90;;;;;;5096722;28;20326;-58
2021/12/27 05:12:14;;;;;;;;;;;1.60;99.90;;;;;;5115104;28;20025;-58
2021/12/27 05:14:41;;;;;;;;;;;1.70;99.90;;;;;;5115143;28;19972;-58
2021/12/27 05:17:08;;;;;;;;;;;1.70;99.90;;;;;;5090575;28;19927;-58
2021/12/27 05:19:34;;;;;;;;;;;1.70;99.90;;;;;;5084319;28;20276;-58
2021/12/27 05:22:01;;;;;;;;;;;1.80;99.90;;;;;;5082782;28;19951;-58
2021/12/27 05:24:28;;;;;;;;;;;1.80;99.90;;;;;;5084365;28;19926;-58
2021/12/27 05:26:55;;;;;;;;;;;1.80;99.90;;;;;;5084112;28;20319;-58
2021/12/27 05:29:22;;;;;;;;;;;1.70;99.90;;;;;;5082721;28;19920;-58
2021/12/27 05:31:49;;;;;;;;;;;1.80;99.90;;;;;;5084330;28;19920;-61
2021/12/27 05:34:16;;;;;;;;;;;1.70;99.90;;;;;;5084285;28;20090;-58
2021/12/27 05:36:44;;;;;;;;;;;1.80;99.90;;;;;;5082302;28;19970;-58
2021/12/27 05:39:12;;;;;;;;;;;1.80;99.90;;;;;;5083680;28;20006;-58
2021/12/27 05:41:39;;;;;;;;;;;1.80;99.90;;;;;;5084682;28;19921;-58
2021/12/27 05:44:06;;;;;;;;;;;1.70;99.90;;;;;;5083216;28;20444;-58
2021/12/27 05:46:32;;;;;;;;;;;1.70;99.90;;;;;;5093579;28;19920;-59
2021/12/27 05:48:59;;;;;;;;;;;1.70;99.90;;;;;;5094077;28;19973;-59
2021/12/27 05:51:26;;;;;;;;;;;1.70;99.90;;;;;;5093361;28;19920;-58
2021/12/27 05:53:53;;;;;;;;;;;1.60;99.90;;;;;;5093681;28;19920;-61
2021/12/27 05:56:19;;;;;;;;;;;1.60;99.90;;;;;;5093736;28;19920;-60
2021/12/27 05:58:46;;;;;;;;;;;1.50;99.90;;;;;;5093853;28;19974;-58
2021/12/27 06:01:13;;;;;;;;;;;1.50;99.90;;;;;;5093662;28;19930;-58
2021/12/27 06:03:41;;;;;;;;;;;1.40;99.90;;;;;;5093801;28;19919;-58
2021/12/27 06:06:07;;;;;;;;;;;1.40;99.90;;;;;;5093349;28;19952;-58
2021/12/27 06:08:34;;;;;;;;;;;1.30;99.90;;;;;;5093374;28;19924;-61
2021/12/27 06:11:01;;;;;;;;;;;1.30;99.90;;;;;;5093917;28;19920;-58
2021/12/27 06:13:28;;;;;;;;;;;1.30;99.90;;;;;;5093589;28;19924;-58
2021/12/27 06:15:55;;;;;;;;;;;1.30;99.90;;;;;;5093094;28;19998;-58
2021/12/27 06:18:24;;;;;;;;;;;1.30;99.90;;;;;;5093545;28;19920;-58
2021/12/27 06:20:50;;;;;;;;;;;1.30;99.90;;;;;;5093457;28;19920;-59
2021/12/27 06:23:17;;;;;;;;;;;1.30;99.90;;;;;;5092943;28;19920;-58
2021/12/27 06:25:44;;;;;;;;;;;1.30;99.90;;;;;;5093003;28;19924;-58
2021/12/27 06:28:11;;;;;;;;;;;1.30;99.90;;;;;;5093560;28;19924;-58
2021/12/27 06:30:38;;;;;;;;;;;1.30;99.90;;;;;;5092981;28;19924;-58
2021/12/27 06:33:06;;;;;;;;;;;1.20;99.90;;;;;;5093273;28;19920;-58
2021/12/27 06:35:33;;;;;;;;;;;1.20;99.90;;;;;;5092714;28;20390;-58
2021/12/27 06:38:00;;;;;;;;;;;1.20;99.90;;;;;;5081130;28;19920;-58
2021/12/27 06:40:27;;;;;;;;;;;1.20;99.90;;;;;;5070947;28;19920;-58
2021/12/27 06:42:54;;;;;;;;;;;1.20;99.90;;;;;;5070934;28;19924;-59
2021/12/27 06:45:21;;;;;;;;;;;1.20;99.90;;;;;;5070328;28;19955;-58
2021/12/27 06:47:48;;;;;;;;;;;1.10;99.90;;;;;;5091384;28;19920;-58
2021/12/27 06:50:15;;;;;;;;;;;1.10;99.90;;;;;;5089522;28;20394;-58
2021/12/27 06:52:42;;;;;;;;;;;1.10;99.90;;;;;;5090563;28;19920;-58
2021/12/27 06:55:09;;;;;;;;;;;1.10;99.90;;;;;;5090951;28;19928;-58
2021/12/27 06:57:36;;;;;;;;;;;1.00;99.90;;;;;;5072404;28;19969;-58
2021/12/27 07:00:05;;;;;;;;;;;1.00;99.90;;;;;;5072713;28;20466;-58
2021/12/27 07:02:32;;;;;;;;;;;1.10;99.90;;;;;;5089975;28;19920;-58
2021/12/27 07:04:59;;;;;;;;;;;1.10;99.90;;;;;;5089204;28;19967;-58
2021/12/27 07:07:27;;;;;;;;;;;1.20;99.90;;;;;;5092266;28;20315;-58
2021/12/27 07:09:54;;;;;;;;;;;1.20;99.90;;;;;;5092391;28;19920;-58
2021/12/27 07:12:20;;;;;;;;;;;1.20;99.90;;;;;;5075520;28;19920;-58
2021/12/27 07:14:48;;;;;;;;;;;1.20;99.90;;;;;;5072095;28;19924;-58
2021/12/27 07:17:15;;;;;;;;;;;1.20;99.90;;;;;;5071894;28;19920;-57
2021/12/27 07:19:42;;;;;;;;;;;1.20;99.90;;;;;;5072183;28;19974;-59
2021/12/27 07:22:09;;;;;;;;;;;1.20;99.90;;;;;;5072139;28;19924;-58
2021/12/27 07:24:35;;;;;;;;;;;1.10;99.90;;;;;;5071995;28;20285;-58
2021/12/27 07:27:02;;;;;;;;;;;1.10;99.90;;;;;;5071494;28;19920;-58
2021/12/27 07:29:29;;;;;;;;;;;1.20;99.90;;;;;;5071981;28;19966;-58
2021/12/27 07:31:56;;;;;;;;;;;1.10;99.90;;;;;;5071939;28;20381;-58
2021/12/27 07:34:24;;;;;;;;;;;1.10;99.90;;;;;;5072332;28;19920;-58
2021/12/27 07:36:52;;;;;;;;;;;1.10;99.90;;;;;;5071410;28;20353;-58
2021/12/27 07:39:20;;;;;;;;;;;1.10;99.90;;;;;;5071933;28;20399;-58
2021/12/27 07:41:46;;;;;;;;;;;1.10;99.90;;;;;;5071756;28;19920;-58
2021/12/27 07:44:13;;;;;;;;;;;1.20;99.90;;;;;;5071949;28;20403;-58
2021/12/27 07:46:42;;;;;;;;;;;1.10;99.90;;;;;;5071454;28;20007;-58
2021/12/27 07:49:09;;;;;;;;;;;1.10;99.90;;;;;;5071831;28;20338;-58
2021/12/27 07:51:36;;;;;;;;;;;1.20;99.90;;;;;;5071481;28;19965;-58
2021/12/27 07:54:03;;;;;;;;;;;1.10;99.90;;;;;;5071914;28;19942;-58
2021/12/27 07:56:30;;;;;;;;;;;1.50;99.90;;;;;;5071427;28;19921;-58
2021/12/27 07:58:57;;;;;;;;;;;1.10;99.90;;;;;;5071824;28;20381;-58
2021/12/27 08:01:23;;;;;;;;;;;1.10;99.90;;;;;;5071544;28;19920;-58
2021/12/27 08:03:52;;;;;;;;;;;1.20;99.90;;;;;;5071695;28;20273;-58
2021/12/27 08:06:23;;;;;;;;;;;1.20;99.90;;;;;;5071280;28;20028;-58
2021/12/27 08:08:49;;;;;;;;;;;1.20;99.90;;;;;;5071662;28;19943;-58
2021/12/27 08:11:16;;;;;;;;;;;1.30;99.90;;;;;;5071700;28;19936;-58
2021/12/27 08:13:43;;;;;;;;;;;1.30;99.90;;;;;;5072998;28;19924;-58
2021/12/27 08:16:10;;;;;;;;;;;1.40;99.90;;;;;;5075262;28;20466;-58
2021/12/27 08:18:41;;;;;;;;;;;1.40;99.90;;;;;;5075466;28;19926;-58
2021/12/27 08:21:08;;;;;;;;;;;1.30;99.90;;;;;;5075074;28;19924;-58
2021/12/27 08:23:35;;;;;;;;;;;1.30;99.90;;;;;;5075489;28;19924;-58
2021/12/27 08:26:02;;;;;;;;;;;1.20;99.90;;;;;;5074935;28;19921;-58
2021/12/27 08:28:28;;;;;;;;;;;1.20;99.90;;;;;;5075565;28;19928;-57
2021/12/27 08:30:55;;;;;;;;;;;1.20;99.90;;;;;;5075262;28;19958;-58
2021/12/27 08:33:22;;;;;;;;;;;1.20;99.90;;;;;;5075121;28;20011;-58
2021/12/27 08:35:49;;;;;;;;;;;1.20;99.90;;;;;;5074710;28;20300;-58
2021/12/27 08:38:18;;;;;;;;;;;1.20;99.90;;;;;;5075164;28;19966;-58
2021/12/27 08:40:45;;;;;;;;;;;1.20;99.90;;;;;;5075037;28;20342;-58
2021/12/27 08:43:12;;;;;;;;;;;1.20;99.90;;;;;;5075070;28;19924;-58
2021/12/27 08:45:39;;;;;;;;;;;1.20;99.90;;;;;;5074308;28;19924;-58
2021/12/27 08:48:06;;;;;;;;;;;1.30;99.90;;;;;;5075032;28;19931;-58
2021/12/27 08:50:33;;;;;;;;;;;1.30;99.90;;;;;;5074729;28;19927;-59
2021/12/27 08:53:00;;;;;;;;;;;1.40;99.90;;;;;;5074948;28;19991;-58
2021/12/27 08:55:27;;;;;;;;;;;1.40;99.90;;;;;;5074333;28;19921;-58
2021/12/27 08:57:53;;;;;;;;;;;1.40;99.90;;;;;;5074779;28;19926;-58
2021/12/27 09:00:20;;;;;;;;;;;1.50;99.90;;;;;;5074743;28;19924;-58
2021/12/27 09:02:47;;;;;;;;;;;1.80;99.90;;;;;;5074613;28;19920;-58
2021/12/27 09:05:14;;;;;;;;;;;1.60;99.90;;;;;;5074247;28;20363;-58
2021/12/27 09:07:41;;;;;;;;;;;1.60;99.90;;;;;;5074701;28;19921;-58
2021/12/27 09:10:08;;;;;;;;;;;1.70;99.90;;;;;;5074758;28;20017;-58
2021/12/27 09:12:35;;;;;;;;;;;1.80;99.90;;;;;;5074483;28;19927;-58
2021/12/27 09:15:02;;;;;;;;;;;1.90;99.90;;;;;;5074923;28;19931;-58
2021/12/27 09:17:29;;;;;;;;;;;2.00;99.90;;;;;;5073926;28;19970;-58
2021/12/27 09:19:55;;;;;;;;;;;2.10;99.90;;;;;;5074450;28;19959;-58
2021/12/27 09:22:22;;;;;;;;;;;2.10;99.90;;;;;;5074160;28;20776;-58
2021/12/27 09:24:50;;;;;;;;;;;2.10;99.90;;;;;;5073330;28;19924;-58
2021/12/27 09:27:17;;;;;;;;;;;2.10;99.90;;;;;;5073637;28;19975;-58
2021/12/27 09:29:44;;;;;;;;;;;2.30;99.90;;;;;;5074191;28;19928;-58
2021/12/27 09:32:11;;;;;;;;;;;2.40;99.90;;;;;;5073754;28;19920;-58
2021/12/27 09:34:39;;;;;;;;;;;2.30;99.90;;;;;;5074422;28;20380;-58
2021/12/27 09:37:06;;;;;;;;;;;2.40;99.90;;;;;;5074038;28;19960;-58
2021/12/27 09:39:33;;;;;;;;;;;2.50;99.90;;;;;;5073878;28;19921;-58
2021/12/27 09:42:00;;;;;;;;;;;2.60;99.90;;;;;;5073703;28;20050;-58
2021/12/27 09:44:27;;;;;;;;;;;2.60;99.90;;;;;;5073971;28;19975;-58
2021/12/27 09:46:54;;;;;;;;;;;2.60;99.90;;;;;;5073432;28;20616;-58
2021/12/27 09:49:22;;;;;;;;;;;2.70;99.90;;;;;;5085493;28;20018;-58
2021/12/27 09:51:48;;;;;;;;;;;2.80;99.90;;;;;;5084741;28;19924;-59
2021/12/27 09:54:15;;;;;;;;;;;2.90;99.90;;;;;;5083599;28;20406;-58
2021/12/27 09:56:43;;;;;;;;;;;3.00;99.90;;;;;;5075684;28;19932;-59
2021/12/27 09:59:10;;;;;;;;;;;3.00;99.90;;;;;;5073401;28;20010;-59
2021/12/27 10:01:36;;;;;;;;;;;3.00;99.90;;;;;;5073425;28;20373;-59
2021/12/27 10:04:04;;;;;;;;;;;2.90;99.90;;;;;;5073558;28;19920;-59
2021/12/27 10:06:31;;;;;;;;;;;2.90;99.90;;;;;;5072791;28;19952;-59
2021/12/27 10:08:58;;;;;;;;;;;3.00;99.90;;;;;;5073398;28;19921;-59
2021/12/27 10:11:27;;;;;;;;;;;3.10;99.90;;;;;;5073415;28;19928;-59
2021/12/27 10:14:04;;;;;;;;;;;3.20;99.90;;;;;;5073342;28;19920;-59
2021/12/27 10:16:32;;;;;;;;;;;3.30;99.90;;;;;;5072802;28;20305;-59
2021/12/27 10:19:00;;;;;;;;;;;3.30;99.90;;;;;;5073457;28;19979;-58
2021/12/27 10:21:27;;;;;;;;;;;3.30;99.90;;;;;;5073035;28;19920;-59
2021/12/27 10:24:02;;;;;;;;;;;3.30;99.90;;;;;;5109940;22;20352;-55
2021/12/27 10:26:30;;;;;;;;;;;3.20;99.90;;;;;;5112613;28;20376;-55
2021/12/27 10:29:27;;;;;;;;;;;3.30;99.90;;;;;;5113438;28;19980;-58
2021/12/27 10:32:09;;;;;;;;;;;3.40;99.90;;;;;;5086132;28;19977;-54
2021/12/27 10:34:46;;;;;;;;;;;3.40;99.90;;;;;;5113579;28;19920;-55
2021/12/27 10:37:18;;;;;;;;;;;3.40;99.90;;;;;;5112367;28;19920;-55
2021/12/27 10:39:47;;;;;;;;;;;3.50;99.90;;;;;;5112930;28;19927;-54
2021/12/27 10:42:17;;;;;;;;;;;3.60;99.90;;;;;;5112770;28;19920;-54
2021/12/27 10:44:44;;;;;;;;;;;3.50;99.90;;;;;;5113386;28;20354;-56
2021/12/27 10:47:31;;;;;;;;;;;3.60;99.90;;;;;;5112853;28;20372;-56
2021/12/27 10:50:03;;;;;;;;;;;3.70;99.90;;;;;;5108546;28;19924;-55
2021/12/27 10:52:39;;;;;;;;;;;3.80;99.90;;;;;;5104283;28;19927;-57
2021/12/27 10:55:06;;;;;;;;;;;4.00;99.90;;;;;;5112886;28;19919;-56
2021/12/27 10:57:33;;;;;;;;;;;4.10;99.90;;;;;;5113131;28;19924;-54
2021/12/27 11:00:19;;;;;;;;;;;4.20;99.90;;;;;;5113220;28;19926;-53
2021/12/27 11:02:46;;;;;;;;;;;4.20;99.90;;;;;;5112800;28;19924;-51
2021/12/27 11:05:17;;;;;;;;;;;4.30;99.90;;;;;;5112820;28;20306;-52
2021/12/27 11:07:44;;;;;;;;;;;4.30;99.90;;;;;;5112980;28;20384;-52
2021/12/27 11:10:11;;;;;;;;;;;4.40;99.90;;;;;;5112885;28;19919;-51
2021/12/27 11:12:38;;;;;;;;;;;4.40;99.90;;;;;;5112184;28;20453;-50
2021/12/27 11:15:09;;;;;;;;;;;4.40;99.90;;;;;;5111985;28;19927;-52
2021/12/27 11:17:37;;;;;;;;;;;4.60;99.90;;;;;;5111109;28;19926;-50
2021/12/27 11:20:08;;;;;;;;;;;4.60;99.90;;;;;;5112683;28;19920;-51
2021/12/27 11:22:39;;;;;;;;;;;4.70;99.90;;;;;;5112923;28;20376;-51
2021/12/27 11:25:07;;;;;;;;;;;4.70;99.90;;;;;;5112496;28;19927;-52
2021/12/27 11:27:34;;;;;;;;;;;4.70;99.90;;;;;;5112142;28;19931;-51
2021/12/27 11:30:04;;;;;;;;;;;4.80;99.90;;;;;;5112536;28;19969;-54
2021/12/27 11:33:00;;;;;;;;;;;4.90;99.90;;;;;;5112313;28;19920;-55
2021/12/27 11:35:32;;;;;;;;;;;4.90;99.90;;;;;;5098183;28;19920;-55
2021/12/27 11:38:01;;;;;;;;;;;5.00;99.90;;;;;;5111407;28;20364;-54
2021/12/27 11:40:44;;;;;;;;;;;4.90;99.90;;;;;;5112532;28;19973;-56
2021/12/27 11:43:11;;;;;;;;;;;4.90;99.90;;;;;;5112405;28;19919;-53
2021/12/27 11:45:43;;;;;;;;;;;4.90;99.90;;;;;;5111093;28;19920;-55
2021/12/27 11:48:26;;;;;;;;;;;5.00;99.90;;;;;;5111055;28;19919;-54
2021/12/27 11:50:58;;;;;;;;;;;5.00;99.90;;;;;;5111669;28;19920;-56
2021/12/27 11:53:27;;;;;;;;;;;5.10;99.90;;;;;;5111735;28;19924;-55
2021/12/27 11:55:54;;;;;;;;;;;5.20;99.90;;;;;;5110204;28;19924;-56
2021/12/27 11:58:28;;;;;;;;;;;5.40;99.90;;;;;;5111755;28;19969;-55
2021/12/27 12:00:55;;;;;;;;;;;5.40;99.90;;;;;;5109145;28;19919;-54
2021/12/27 12:03:37;;;;;;;;;;;5.50;99.90;;;;;;5111916;28;19921;-55
2021/12/27 12:06:05;;;;;;;;;;;5.60;99.90;;;;;;5110136;28;19927;-55
2021/12/27 12:08:37;;;;;;;;;;;5.60;99.90;;;;;;5111583;28;19974;-54
2021/12/27 12:11:06;;;;;;;;;;;5.60;99.90;;;;;;5112236;28;19924;-56
2021/12/27 12:13:36;;;;;;;;;;;5.70;99.90;;;;;;5111546;28;19924;-54
2021/12/27 12:16:10;;;;;;;;;;;5.60;99.90;;;;;;5111807;28;19927;-55
2021/12/27 12:18:39;;;;;;;;;;;5.50;99.90;;;;;;5112190;28;19931;-53
2021/12/27 12:21:07;;;;;;;;;;;5.60;99.90;;;;;;5112149;28;19927;-57
2021/12/27 12:23:53;;;;;;;;;;;5.50;99.90;;;;;;5111801;28;19919;-58
2021/12/27 12:26:20;;;;;;;;;;;5.60;99.90;;;;;;5111739;28;19988;-56
2021/12/27 12:28:47;;;;;;;;;;;5.70;99.90;;;;;;5111627;28;19919;-54
2021/12/27 12:31:14;;;;;;;;;;;5.70;99.90;;;;;;5111955;28;19924;-56
2021/12/27 12:33:41;;;;;;;;;;;5.80;99.90;;;;;;5111879;28;20351;-55
2021/12/27 12:36:11;;;;;;;;;;;5.70;99.90;;;;;;5111821;28;19924;-56
2021/12/27 12:38:38;;;;;;;;;;;5.70;99.90;;;;;;5112099;28;19930;-53
2021/12/27 12:41:11;;;;;;;;;;;5.70;99.90;;;;;;5111677;28;19926;-58
2021/12/27 12:43:54;;;;;;;;;;;5.70;99.90;;;;;;5111677;28;19971;-57
2021/12/27 12:46:28;;;;;;;;;;;5.70;99.90;;;;;;5111608;28;19920;-54
2021/12/27 12:49:00;;;;;;;;;;;5.80;99.90;;;;;;5111563;28;20031;-58
2021/12/27 12:51:31;;;;;;;;;;;5.90;99.90;;;;;;5111687;28;19977;-57
2021/12/27 12:53:58;;;;;;;;;;;6.00;99.90;;;;;;5111756;28;19920;-57
2021/12/27 12:56:29;;;;;;;;;;;6.00;99.90;;;;;;5111422;28;19920;-56
2021/12/27 12:58:56;;;;;;;;;;;5.90;99.90;;;;;;5111819;28;19966;-58
2021/12/27 13:01:22;;;;;;;;;;;6.00;99.90;;;;;;5115044;28;19920;-57
2021/12/27 13:03:55;;;;;;;;;;;6.00;99.90;;;;;;5115438;28;19926;-59
2021/12/27 13:06:22;;;;;;;;;;;6.10;99.90;;;;;;5114916;28;19920;-55
2021/12/27 13:08:53;;;;;;;;;;;6.10;99.90;;;;;;5115189;28;19919;-58
2021/12/27 13:11:20;;;;;;;;;;;6.20;99.90;;;;;;5115364;28;20356;-56
2021/12/27 13:13:55;;;;;;;;;;;6.20;99.90;;;;;;5114945;28;19920;-57
2021/12/27 13:16:27;;;;;;;;;;;6.20;99.90;;;;;;5114502;28;19973;-57
2021/12/27 13:18:54;;;;;;;;;;;6.20;99.90;;;;;;5115114;28;19923;-58
2021/12/27 13:21:21;;;;;;;;;;;6.20;99.90;;;;;;5114922;28;20397;-57
2021/12/27 13:23:48;;;;;;;;;;;6.20;99.90;;;;;;5115110;28;19920;-57
2021/12/27 13:26:16;;;;;;;;;;;6.20;99.90;;;;;;5114360;28;19945;-57
2021/12/27 13:28:49;;;;;;;;;;;6.20;99.90;;;;;;5114851;28;20012;-57
2021/12/27 13:31:25;;;;;;;;;;;6.10;99.90;;;;;;5114687;28;19924;-57
2021/12/27 13:33:55;;;;;;;;;;;6.20;99.90;;;;;;5114843;28;20291;-57
2021/12/27 13:36:27;;;;;;;;;;;6.20;99.90;;;;;;5114420;28;19920;-57
2021/12/27 13:38:57;;;;;;;;;;;6.20;99.90;;;;;;5114535;28;19946;-57
2021/12/27 13:41:26;;;;;;;;;;;6.10;99.90;;;;;;5114582;28;19928;-57
2021/12/27 13:43:57;;;;;;;;;;;6.10;99.90;;;;;;5114427;28;19972;-56
2021/12/27 13:46:30;;;;;;;;;;;6.20;99.90;;;;;;5114327;28;19923;-58
2021/12/27 13:49:00;;;;;;;;;;;6.20;99.90;;;;;;5115062;28;20383;-58
2021/12/27 13:51:28;;;;;;;;;;;6.20;99.90;;;;;;5114016;28;19970;-56
2021/12/27 13:53:59;;;;;;;;;;;6.30;99.90;;;;;;5114502;28;20384;-57
2021/12/27 13:56:27;;;;;;;;;;;6.30;99.90;;;;;;5113848;28;19920;-58
2021/12/27 13:59:03;;;;;;;;;;;6.30;99.90;;;;;;5114323;28;19957;-57
2021/12/27 14:01:30;;;;;;;;;;;6.30;99.90;;;;;;5114086;28;19969;-58
2021/12/27 14:04:10;;;;;;;;;;;6.10;99.90;;;;;;5114052;28;19919;-56
2021/12/27 14:06:52;;;;;;;;;;;6.00;99.90;;;;;;5113933;28;19919;-57
2021/12/27 14:09:23;;;;;;;;;;;5.90;99.90;;;;;;5113976;28;19953;-57
2021/12/27 14:11:51;;;;;;;;;;;5.90;99.90;;;;;;5113090;28;19926;-56
2021/12/27 14:14:37;;;;;;;;;;;5.80;99.90;;;;;;5114069;28;19932;-56
2021/12/27 14:17:13;;;;;;;;;;;5.70;99.90;;;;;;5113563;28;19976;-58
2021/12/27 14:19:42;;;;;;;;;;;5.60;99.90;;;;;;5114048;28;19964;-56
2021/12/27 14:22:26;;;;;;;;;;;5.50;99.90;;;;;;5113588;28;19962;-55
2021/12/27 14:24:57;;;;;;;;;;;5.40;99.90;;;;;;5113670;28;20371;-56
2021/12/27 14:27:24;;;;;;;;;;;5.40;99.90;;;;;;5113476;28;19923;-57
2021/12/27 14:30:06;;;;;;;;;;;5.40;99.90;;;;;;5113720;28;19920;-55
2021/12/27 14:32:34;;;;;;;;;;;5.40;99.90;;;;;;5113479;28;20016;-56
2021/12/27 14:35:01;;;;;;;;;;;5.30;99.90;;;;;;5113227;28;19920;-55
2021/12/27 14:37:27;;;;;;;;;;;5.30;99.90;;;;;;5112967;28;19923;-57
2021/12/27 14:39:54;;;;;;;;;;;5.30;99.90;;;;;;5113849;28;19924;-57
2021/12/27 14:42:21;;;;;;;;;;;5.30;99.90;;;;;;5113452;28;19970;-55
2021/12/27 14:44:49;;;;;;;;;;;5.20;99.90;;;;;;5113245;28;20006;-56